Vilas, South Dakota
Current Conditions -  °F | °C
As of 1:30 AM on Thursday 18 Dec 2014 (Local Time) from KMDS Reporting Station
Overcast Overcast  
Wind Chill: 10°   Ceiling: 6500
Heat Index: 10°   Visibility: 10mi
Dew Point: 10°   Wind: 3mph
Humidity: 100%   Direction: 90°E
Pressure: 30.23"   Gusts: NA
Location:  44.0529°N, 97.5161°W
Report Text: KMDS 180730Z AUTO 09003KT 10SM OVC065 M12/M12 A3023 RMK AO2
Loading
Personal Weather Stations






























Interactive Weather Map New forecast layout! Learn more

10-Day Weather Forecast

Advertisements
Track Severe Weather on mobile